Time;durP1;ratioP1;P1;durP2;ratioP2;P2;SDS_P1;SDS_P2;PMS_P1;PMS_P2;Temp;Humidity;BMP_temperature;BMP_pressure;BME280_temperature;BME280_humidity;BME280_pressure;Samples;Min_cycle;Max_cycle;Signal;HPM_P1;HPM_P2
2023/05/10 00:02:23;;;;;;;11.00;5.80;;;;;;;9.30;57.73;100704.82;217479;1285;137608;-87
2023/05/10 00:07:23;;;;;;;12.10;5.50;;;;;;;9.21;57.97;100700.73;217721;1286;137907;-88
2023/05/10 00:12:23;;;;;;;15.50;5.70;;;;;;;9.13;58.48;100690.20;217285;1286;139294;-89
2023/05/10 00:17:24;;;;;;;13.10;5.50;;;;;;;9.05;58.42;100684.55;217676;1286;137851;-87
2023/05/10 00:22:24;;;;;;;13.40;6.10;;;;;;;8.97;58.45;100683.04;217419;1286;138921;-89
2023/05/10 00:27:24;;;;;;;14.30;5.60;;;;;;;8.89;58.94;100677.21;217834;1286;138949;-89
2023/05/10 00:32:25;;;;;;;13.20;6.10;;;;;;;8.83;58.98;100672.20;217363;1284;137976;-89
2023/05/10 00:37:25;;;;;;;14.40;6.40;;;;;;;8.78;59.30;100668.73;217726;1285;137875;-88
2023/05/10 00:42:26;;;;;;;13.60;5.90;;;;;;;8.72;59.28;100662.80;217279;1284;138556;-88
2023/05/10 00:47:27;;;;;;;13.40;6.20;;;;;;;8.66;59.43;100660.16;217768;1284;137800;-89
2023/05/10 00:52:29;;;;;;;11.10;5.00;;;;;;;8.60;59.72;100656.25;217522;1284;137537;-88
2023/05/10 00:57:30;;;;;;;12.50;5.70;;;;;;;8.54;59.78;100654.88;217706;1286;137931;-88
2023/05/10 01:02:30;;;;;;;14.10;5.60;;;;;;;8.49;60.14;100653.65;217367;1286;138846;-86
2023/05/10 01:07:31;;;;;;;15.90;5.70;;;;;;;8.42;60.05;100651.38;217714;1288;138434;-87
2023/05/10 01:12:33;;;;;;;13.20;6.00;;;;;;;8.37;60.10;100649.47;217052;1286;138348;-90
2023/05/10 01:17:36;;;;;;;13.40;6.00;;;;;;;8.32;60.30;100647.00;217871;1286;138001;-88
2023/05/10 01:23:01;;;;;;;12.80;5.80;;;;;;;8.29;60.62;100642.30;217379;1285;138015;-86
2023/05/10 01:28:25;;;;;;;14.90;6.20;;;;;;;8.29;60.70;100639.08;217702;1284;112197;-90
2023/05/10 01:33:42;;;;;;;11.30;5.20;;;;;;;8.26;60.88;100633.92;217328;1286;138077;-85
2023/05/10 01:38:55;;;;;;;15.90;6.80;;;;;;;8.24;61.01;100632.21;217682;1286;138825;-84
2023/05/10 01:44:18;;;;;;;12.20;5.20;;;;;;;8.23;60.82;100635.16;217406;1286;139078;-85
2023/05/10 01:49:25;;;;;;;12.70;5.90;;;;;;;8.20;61.13;100629.09;219667;1284;138398;-88
2023/05/10 01:54:28;;;;;;;13.30;5.80;;;;;;;8.18;61.34;100626.09;219794;1284;137894;-87
2023/05/10 01:59:36;;;;;;;16.60;5.70;;;;;;;8.17;61.50;100626.14;219707;1284;139312;-85
2023/05/10 02:04:38;;;;;;;11.70;5.40;;;;;;;8.17;61.60;100618.95;220273;1285;104994;-85
2023/05/10 02:09:40;;;;;;;12.00;5.40;;;;;;;8.17;61.70;100612.75;219700;1284;139089;-86
2023/05/10 02:14:42;;;;;;;13.30;5.50;;;;;;;8.17;61.80;100611.74;220003;1285;137870;-87
2023/05/10 02:19:43;;;;;;;15.30;5.30;;;;;;;8.14;62.02;100610.20;219397;1285;139128;-87
2023/05/10 02:28:33;;;;;;;14.80;5.10;;;;;;;8.10;62.12;100602.95;216274;1295;637093;-85
2023/05/10 02:33:35;;;;;;;11.60;4.80;;;;;;;8.01;62.13;100601.81;215108;1298;138193;-85
2023/05/10 02:38:36;;;;;;;11.80;5.20;;;;;;;7.95;62.29;100603.84;215618;1298;145481;-87
2023/05/10 02:43:39;;;;;;;10.60;5.40;;;;;;;7.88;62.61;100606.02;216007;1292;137756;-87
2023/05/10 02:48:39;;;;;;;15.00;6.10;;;;;;;7.80;62.71;100601.21;216232;1292;138644;-88
2023/05/10 02:53:43;;;;;;;11.70;5.40;;;;;;;7.72;63.04;100601.55;215979;1291;137428;-85
2023/05/10 02:58:44;;;;;;;13.00;5.30;;;;;;;7.65;63.47;100601.61;216242;1291;94437;-87
2023/05/10 03:03:44;;;;;;;10.90;5.60;;;;;;;7.58;63.51;100600.98;215762;1292;137817;-87
2023/05/10 03:08:45;;;;;;;12.50;5.50;;;;;;;7.52;63.96;100598.92;216384;1291;136969;-88
2023/05/10 03:14:11;;;;;;;10.10;5.20;;;;;;;7.45;64.29;100597.02;215883;1291;139225;-86
2023/05/10 03:19:15;;;;;;;11.50;5.30;;;;;;;7.38;64.46;100591.61;215778;1292;137472;-86
2023/05/10 03:24:19;;;;;;;12.50;5.60;;;;;;;7.33;64.74;100587.33;216365;1292;136085;-87
2023/05/10 03:29:22;;;;;;;12.20;5.80;;;;;;;7.30;65.08;100586.84;215719;1292;138195;-83
2023/05/10 03:34:26;;;;;;;11.70;5.10;;;;;;;7.28;65.41;100587.02;216546;1295;95185;-86
2023/05/10 03:39:26;;;;;;;12.60;5.60;;;;;;;7.26;65.59;100587.21;215705;1292;138711;-86
2023/05/10 03:44:26;;;;;;;11.20;5.60;;;;;;;7.25;65.79;100587.89;216385;1291;137113;-88
2023/05/10 03:49:27;;;;;;;14.50;6.70;;;;;;;7.26;66.23;100591.83;215802;1295;137156;-87
2023/05/10 03:54:27;;;;;;;11.90;5.80;;;;;;;7.27;66.30;100594.27;216248;1292;137654;-84
2023/05/10 03:59:28;;;;;;;15.30;5.60;;;;;;;7.26;66.31;100596.83;215816;1291;137250;-87
2023/05/10 04:04:28;;;;;;;15.10;5.80;;;;;;;7.28;66.60;100595.26;216336;1292;95201;-86
2023/05/10 04:09:28;;;;;;;15.50;5.50;;;;;;;7.32;66.66;100590.33;215891;1293;137123;-86
2023/05/10 04:14:29;;;;;;;13.50;5.60;;;;;;;7.35;66.83;100586.13;216391;1292;137094;-86
2023/05/10 04:19:30;;;;;;;13.00;6.00;;;;;;;7.39;66.81;100589.67;215859;1292;137665;-89
2023/05/10 04:24:30;;;;;;;14.20;5.80;;;;;;;7.45;66.90;100591.25;216315;1292;137373;-88
2023/05/10 04:29:31;;;;;;;12.70;5.60;;;;;;;7.53;67.32;100588.55;215915;1291;139003;-86
2023/05/10 04:34:33;;;;;;;12.80;5.50;;;;;;;7.59;67.23;100587.85;216513;1295;95870;-87
2023/05/10 04:39:35;;;;;;;13.40;6.20;;;;;;;7.67;67.15;100589.93;215835;1293;137071;-88
2023/05/10 04:44:36;;;;;;;14.70;6.60;;;;;;;7.76;67.08;100588.27;216317;1295;138401;-86
2023/05/10 04:49:36;;;;;;;13.20;5.50;;;;;;;7.88;66.93;100592.65;215825;1291;138635;-87
2023/05/10 04:54:36;;;;;;;12.30;6.00;;;;;;;7.99;66.94;100593.54;216135;1292;137187;-84
2023/05/10 04:59:37;;;;;;;15.30;6.00;;;;;;;8.11;66.94;100596.31;215856;1292;138245;-86
2023/05/10 05:04:37;;;;;;;13.80;6.20;;;;;;;8.23;66.85;100593.66;216266;1292;95241;-85
2023/05/10 05:09:38;;;;;;;13.80;5.90;;;;;;;8.36;66.58;100599.84;215894;1292;136892;-86
2023/05/10 05:14:38;;;;;;;15.70;6.40;;;;;;;8.48;66.57;100601.43;216334;1293;137278;-90
2023/05/10 05:19:39;;;;;;;14.80;7.10;;;;;;;8.67;66.40;100603.52;215930;1293;138586;-86
2023/05/10 05:24:39;;;;;;;15.10;6.00;;;;;;;8.92;66.51;100602.55;216340;1296;137446;-88
2023/05/10 05:29:39;;;;;;;13.40;5.90;;;;;;;9.28;65.71;100601.42;215632;1292;138850;-84
2023/05/10 05:34:40;;;;;;;12.60;5.50;;;;;;;9.74;65.12;100604.01;216386;1295;95149;-88
2023/05/10 05:39:43;;;;;;;12.40;5.60;;;;;;;10.27;64.09;100604.11;215826;1292;137904;-85
2023/05/10 05:44:43;;;;;;;14.10;5.70;;;;;;;10.92;63.54;100606.88;216245;1293;137490;-84
2023/05/10 05:49:47;;;;;;;11.70;5.40;;;;;;;11.54;62.10;100601.63;215798;1291;139406;-85
2023/05/10 05:54:48;;;;;;;12.80;5.80;;;;;;;12.18;60.49;100600.21;216255;1295;137669;-88
2023/05/10 05:59:48;;;;;;;15.80;6.10;;;;;;;12.80;59.17;100594.83;215861;1295;138683;-89
2023/05/10 06:04:48;;;;;;;11.50;5.80;;;;;;;13.40;58.19;100591.44;216476;1293;95909;-84
2023/05/10 06:09:49;;;;;;;12.90;6.30;;;;;;;13.99;55.95;100592.61;215886;1292;137237;-87
2023/05/10 06:14:49;;;;;;;12.70;6.00;;;;;;;14.30;54.94;100591.27;216350;1292;137513;-88
2023/05/10 06:19:50;;;;;;;13.30;5.40;;;;;;;14.77;54.26;100597.73;215826;1292;138006;-84
2023/05/10 06:24:50;;;;;;;13.00;5.20;;;;;;;15.10;52.36;100592.77;216348;1292;137709;-87
2023/05/10 06:29:50;;;;;;;11.20;5.20;;;;;;;15.40;51.63;100591.13;215796;1292;139640;-88
2023/05/10 06:34:51;;;;;;;10.50;5.10;;;;;;;15.66;51.40;100589.06;216396;1292;137649;-87
2023/05/10 06:39:51;;;;;;;11.20;5.60;;;;;;;16.18;51.00;100589.67;215974;1294;138625;-85
2023/05/10 06:44:52;;;;;;;10.30;5.40;;;;;;;16.55;50.04;100591.41;216348;1292;137907;-84
2023/05/10 06:49:52;;;;;;;13.30;5.70;;;;;;;16.66;49.02;100590.33;215856;1292;137995;-84
2023/05/10 06:54:53;;;;;;;10.60;5.50;;;;;;;16.68;48.99;100587.54;216370;1292;137798;-86
2023/05/10 06:59:55;;;;;;;10.10;5.00;;;;;;;16.68;47.79;100590.63;215778;1291;139151;-88
2023/05/10 07:04:56;;;;;;;13.00;7.00;;;;;;;16.50;47.52;100593.28;216284;1292;137852;-90
2023/05/10 07:09:57;;;;;;;10.40;5.50;;;;;;;16.48;47.95;100593.30;215913;1295;137463;-88
2023/05/10 07:14:57;;;;;;;11.00;5.00;;;;;;;16.40;47.56;100592.27;216207;1292;137715;-88
2023/05/10 07:19:58;;;;;;;9.70;5.10;;;;;;;16.31;47.61;100585.05;215805;1292;137923;-88
2023/05/10 07:24:58;;;;;;;13.60;5.20;;;;;;;16.31;48.29;100580.50;216371;1291;137668;-91
2023/05/10 07:29:59;;;;;;;11.00;5.00;;;;;;;16.40;47.52;100575.44;215843;1291;138196;-90
2023/05/10 07:35:00;;;;;;;12.30;4.60;;;;;;;16.39;47.50;100576.56;216268;1291;137754;-89
2023/05/10 07:40:00;;;;;;;9.90;5.40;;;;;;;16.42;47.41;100573.98;215911;1292;137945;-87
2023/05/10 07:45:00;;;;;;;9.70;3.90;;;;;;;16.50;47.43;100572.17;216249;1292;137866;-90
2023/05/10 07:50:01;;;;;;;9.00;4.80;;;;;;;16.57;47.10;100576.13;215797;1292;138946;-84
2023/05/10 07:55:02;;;;;;;13.20;4.70;;;;;;;16.59;47.22;100573.90;216285;1291;137527;-89
2023/05/10 08:00:03;;;;;;;9.20;4.80;;;;;;;16.65;47.17;100577.02;215833;1292;138402;-89
2023/05/10 08:05:05;;;;;;;9.80;4.80;;;;;;;16.81;47.21;100578.40;216278;1292;138018;-94
2023/05/10 08:10:06;;;;;;;7.70;3.90;;;;;;;17.14;47.07;100573.05;215901;1291;137876;-91
2023/05/10 08:15:08;;;;;;;14.10;4.80;;;;;;;17.65;47.19;100570.35;216313;1295;137892;-92
2023/05/10 08:20:09;;;;;;;9.70;4.40;;;;;;;18.35;46.32;100564.27;215683;1295;138462;-92
2023/05/10 08:25:09;;;;;;;9.70;4.10;;;;;;;19.08;45.79;100562.73;216259;1295;138119;-89
2023/05/10 08:30:10;;;;;;;10.30;3.90;;;;;;;19.77;44.34;100568.73;215782;1292;137707;-90
2023/05/10 08:35:10;;;;;;;9.00;4.40;;;;;;;20.37;43.70;100566.83;216258;1291;138266;-92
2023/05/10 08:40:12;;;;;;;12.00;4.30;;;;;;;21.02;42.44;100566.20;215841;1292;138310;-91
2023/05/10 08:51:18;;;;;;;8.50;3.80;;;;;;;22.08;40.35;100565.29;216280;1289;95322;-90
2023/05/10 08:56:20;;;;;;;7.80;2.80;;;;;;;22.33;39.19;100561.23;216689;1289;95278;-88
2023/05/10 09:01:21;;;;;;;8.10;3.20;;;;;;;22.95;38.10;100561.89;216023;1292;137685;-93
2023/05/10 09:06:22;;;;;;;7.40;3.30;;;;;;;23.48;38.09;100554.33;216715;1293;137912;-94
2023/05/10 09:11:24;;;;;;;8.70;3.70;;;;;;;23.91;37.36;100553.44;216265;1292;139483;-91
2023/05/10 09:16:26;;;;;;;9.60;3.00;;;;;;;24.30;36.61;100550.65;216731;1289;95672;-92
2023/05/10 09:21:27;;;;;;;9.50;3.40;;;;;;;24.88;35.98;100545.04;216249;1289;138772;-89
2023/05/10 09:26:27;;;;;;;7.60;3.50;;;;;;;25.09;34.15;100541.06;216782;1288;137317;-90
2023/05/10 09:31:47;;;;;;;16.20;4.60;;;;;;;25.19;32.63;100543.50;216335;1289;138282;-92
2023/05/10 09:36:56;;;;;;;14.20;3.10;;;;;;;25.39;32.70;100534.38;216840;1289;137577;-93
2023/05/10 09:41:58;;;;;;;7.20;2.30;;;;;;;25.42;31.00;100538.80;216147;1289;138051;-92
2023/05/10 09:46:59;;;;;;;8.80;2.60;;;;;;;25.47;30.72;100540.98;216939;1289;95243;-90
2023/05/10 09:52:01;;;;;;;10.30;2.90;;;;;;;25.57;30.38;100537.77;216307;1289;138525;-92
2023/05/10 09:57:01;;;;;;;5.70;2.30;;;;;;;25.78;30.45;100534.69;216612;1293;137827;-90
2023/05/10 10:02:02;;;;;;;8.30;2.70;;;;;;;26.01;28.95;100527.75;216199;1289;138612;-92
2023/05/10 10:07:05;;;;;;;4.90;2.40;;;;;;;26.08;29.90;100531.02;216834;1289;137964;-89
2023/05/10 10:12:05;;;;;;;10.70;2.70;;;;;;;26.51;29.06;100527.83;216341;1292;137408;-89
2023/05/10 10:17:07;;;;;;;6.50;2.10;;;;;;;26.22;28.36;100522.24;216665;1293;137751;-87
2023/05/10 10:22:07;;;;;;;5.90;2.20;;;;;;;25.93;28.32;100519.45;216412;1292;137932;-89
2023/05/10 10:27:28;;;;;;;8.60;2.90;;;;;;;25.95;28.19;100517.98;216512;1294;137967;-89
2023/05/10 10:32:47;;;;;;;8.10;2.60;;;;;;;25.86;27.97;100519.13;215748;1294;138986;-93
2023/05/10 10:37:50;;;;;;;5.20;2.40;;;;;;;26.13;28.23;100514.88;216408;1292;138158;-91
2023/05/10 10:42:52;;;;;;;9.50;2.60;;;;;;;26.07;28.19;100508.59;216008;1291;137706;-93
2023/05/10 10:48:24;;;;;;;9.50;2.60;;;;;;;25.94;28.25;100502.65;216346;1292;137608;-90
2023/05/10 10:53:29;;;;;;;8.30;2.10;;;;;;;25.91;28.01;100494.16;215910;1292;139009;-89
2023/05/10 10:58:31;;;;;;;6.30;2.10;;;;;;;25.92;28.29;100488.09;216523;1291;96545;-91
2023/05/10 11:03:32;;;;;;;6.30;2.30;;;;;;;25.95;28.12;100491.34;215902;1291;138694;-90
2023/05/10 11:08:34;;;;;;;8.30;2.30;;;;;;;26.10;28.08;100481.67;216505;1294;138617;-88
2023/05/10 11:13:48;;;;;;;7.90;2.70;;;;;;;26.33;28.48;100482.25;215852;1292;138131;-88
2023/05/10 11:19:03;;;;;;;6.50;2.50;;;;;;;26.43;27.74;100482.23;216477;1294;137875;-90
2023/05/10 11:24:13;;;;;;;6.50;2.30;;;;;;;26.20;27.26;100484.29;216037;1292;138542;-91
2023/05/10 11:29:13;;;;;;;10.40;2.70;;;;;;;26.25;28.22;100470.48;215883;1291;137889;-92
2023/05/10 11:34:30;;;;;;;7.90;2.60;;;;;;;26.54;27.76;100462.80;216665;1291;96591;-89
2023/05/10 11:39:31;;;;;;;8.50;2.70;;;;;;;26.21;27.22;100473.19;215929;1292;137741;-92
2023/05/10 11:44:32;;;;;;;7.10;2.60;;;;;;;26.03;27.50;100468.69;216388;1290;138495;-89
2023/05/10 11:49:32;;;;;;;10.00;2.80;;;;;;;25.87;27.55;100467.71;215999;1294;137707;-92
2023/05/10 11:54:34;;;;;;;7.10;3.10;;;;;;;25.78;27.82;100471.72;216617;1291;139410;-88
2023/05/10 11:59:36;;;;;;;6.70;2.30;;;;;;;25.80;28.31;100471.52;215743;1291;137820;-90
2023/05/10 12:04:37;;;;;;;7.90;2.80;;;;;;;25.67;28.42;100467.37;216653;1293;96494;-92
2023/05/10 12:09:41;;;;;;;8.50;2.60;;;;;;;25.40;27.96;100469.09;216036;1291;137824;-89
2023/05/10 12:14:42;;;;;;;6.10;2.50;;;;;;;25.34;28.32;100462.00;216439;1294;137618;-89
2023/05/10 12:19:43;;;;;;;7.60;2.30;;;;;;;25.32;28.41;100470.30;215814;1291;139441;-88
2023/05/10 12:24:45;;;;;;;6.80;2.40;;;;;;;25.23;28.80;100463.62;216487;1291;137731;-94
2023/05/10 12:29:47;;;;;;;7.20;2.70;;;;;;;25.36;28.81;100461.34;216332;1290;138557;-92
2023/05/10 12:34:48;;;;;;;8.70;3.30;;;;;;;25.31;28.69;100466.39;216838;1289;110250;-91
2023/05/10 12:39:48;;;;;;;7.00;2.40;;;;;;;25.24;28.65;100463.95;216317;1289;140515;-91
2023/05/10 12:44:49;;;;;;;9.80;3.00;;;;;;;25.18;28.64;100463.63;216794;1291;137970;-86
2023/05/10 12:49:50;;;;;;;7.00;2.80;;;;;;;25.24;29.02;100462.96;216289;1291;137796;-93
2023/05/10 12:54:52;;;;;;;7.60;2.90;;;;;;;25.33;28.91;100455.20;216837;1288;139120;-88
2023/05/10 12:59:53;;;;;;;15.00;3.30;;;;;;;25.29;28.43;100452.39;216262;1289;138474;-93
2023/05/10 13:04:57;;;;;;;5.30;2.80;;;;;;;25.15;28.77;100452.79;216843;1290;96524;-91
2023/05/10 13:09:58;;;;;;;6.40;2.40;;;;;;;24.98;28.83;100448.34;216259;1292;138040;-89
2023/05/10 13:14:58;;;;;;;7.00;3.00;;;;;;;24.60;29.15;100452.30;216755;1289;137535;-91
2023/05/10 13:19:59;;;;;;;8.10;3.50;;;;;;;24.51;29.48;100454.25;216321;1289;138191;-91
2023/05/10 13:25:01;;;;;;;13.00;2.60;;;;;;;24.60;30.40;100446.11;216557;1289;137721;-88
2023/05/10 13:30:03;;;;;;;6.50;2.60;;;;;;;24.71;29.77;100441.65;216245;1290;138879;-90
2023/05/10 13:35:04;;;;;;;9.40;2.70;;;;;;;24.53;29.66;100434.13;216886;1289;96678;-91
2023/05/10 13:40:06;;;;;;;25.10;3.90;;;;;;;24.31;30.32;100429.09;216377;1289;137426;-89
2023/05/10 13:45:07;;;;;;;6.20;2.70;;;;;;;24.46;30.63;100426.65;216690;1289;137674;-87
2023/05/10 13:50:07;;;;;;;5.70;2.50;;;;;;;24.31;29.96;100424.28;216248;1289;139287;-89
2023/05/10 13:55:08;;;;;;;7.70;2.70;;;;;;;24.10;30.49;100426.60;216698;1291;138702;-89
2023/05/10 14:00:09;;;;;;;8.60;2.90;;;;;;;24.02;30.41;100426.55;216246;1289;137753;-92
2023/05/10 14:05:09;;;;;;;11.80;2.90;;;;;;;23.89;30.65;100426.39;216724;1289;138358;-90
2023/05/10 14:10:10;;;;;;;6.30;2.60;;;;;;;23.83;30.39;100421.27;216405;1289;137962;-90
2023/05/10 14:15:11;;;;;;;6.10;2.70;;;;;;;23.76;30.93;100415.45;216843;1289;137717;-90
2023/05/10 14:20:11;;;;;;;5.60;2.90;;;;;;;23.64;31.24;100415.39;216221;1292;138507;-91
2023/05/10 14:25:13;;;;;;;7.10;3.00;;;;;;;23.59;31.66;100411.70;216945;1290;138305;-92
2023/05/10 14:30:14;;;;;;;8.70;3.30;;;;;;;23.64;31.94;100409.46;216446;1287;139108;-90
2023/05/10 14:35:15;;;;;;;8.70;2.60;;;;;;;23.67;31.46;100410.88;216916;1289;137705;-92
2023/05/10 14:40:16;;;;;;;6.40;3.10;;;;;;;23.42;31.64;100412.10;216635;1288;139182;-91
2023/05/10 14:45:17;;;;;;;6.70;2.80;;;;;;;23.32;31.78;100412.92;217001;1288;137777;-88
2023/05/10 14:50:18;;;;;;;7.30;3.50;;;;;;;23.05;32.24;100407.99;216554;1289;137917;-91
2023/05/10 14:55:19;;;;;;;8.50;3.10;;;;;;;22.93;32.80;100407.52;217149;1289;137861;-89
2023/05/10 15:00:21;;;;;;;7.00;3.00;;;;;;;22.69;32.72;100404.27;216560;1288;138108;-87
2023/05/10 15:05:22;;;;;;;8.80;3.10;;;;;;;22.47;33.29;100399.03;217124;1291;138249;-89
2023/05/10 15:10:22;;;;;;;7.10;3.00;;;;;;;22.41;33.71;100407.03;216667;1288;138914;-90
2023/05/10 15:15:23;;;;;;;7.70;3.20;;;;;;;22.23;33.50;100397.02;217107;1289;136425;-88
2023/05/10 15:20:23;;;;;;;10.50;3.40;;;;;;;22.05;34.46;100402.27;216427;1291;138304;-91
2023/05/10 15:25:23;;;;;;;7.60;3.00;;;;;;;22.08;34.68;100399.43;216943;1287;139028;-88
2023/05/10 15:30:24;;;;;;;8.80;3.20;;;;;;;22.05;34.40;100393.13;216401;1291;137993;-93
2023/05/10 15:35:26;;;;;;;6.40;3.20;;;;;;;21.92;34.95;100397.12;217134;1288;137815;-88
2023/05/10 15:40:26;;;;;;;9.90;3.40;;;;;;;21.89;35.11;100399.17;216568;1289;138162;-92
2023/05/10 15:45:26;;;;;;;9.90;3.90;;;;;;;21.81;34.95;100390.25;216988;1289;137588;-89
2023/05/10 15:50:27;;;;;;;7.50;3.20;;;;;;;21.66;35.16;100401.24;216430;1289;138611;-88
2023/05/10 15:55:27;;;;;;;10.30;3.30;;;;;;;21.46;35.52;100402.96;216851;1289;137714;-88
2023/05/10 16:00:28;;;;;;;9.80;3.20;;;;;;;21.30;36.15;100397.34;216378;1288;137906;-88
2023/05/10 16:05:32;;;;;;;7.00;3.20;;;;;;;21.16;36.16;100398.34;216842;1287;138786;-90
2023/05/10 16:10:33;;;;;;;9.70;3.60;;;;;;;21.04;36.34;100397.14;216680;1287;140622;-89
2023/05/10 16:15:33;;;;;;;9.10;3.20;;;;;;;20.90;36.29;100398.13;217073;1288;137547;-88
2023/05/10 16:20:34;;;;;;;9.70;3.50;;;;;;;20.81;36.58;100397.13;216579;1289;138373;-89
2023/05/10 16:25:35;;;;;;;10.10;3.40;;;;;;;20.70;36.60;100400.83;216871;1289;137836;-90
2023/05/10 16:30:36;;;;;;;7.20;3.60;;;;;;;20.50;36.55;100398.24;216490;1288;138676;-91
2023/05/10 16:35:36;;;;;;;9.80;4.10;;;;;;;20.30;36.75;100406.27;216995;1289;137934;-89
2023/05/10 16:40:37;;;;;;;8.50;3.70;;;;;;;20.12;37.12;100411.81;216593;1289;138212;-87
2023/05/10 16:45:37;;;;;;;8.80;3.20;;;;;;;19.97;37.53;100417.25;216960;1288;138381;-89
2023/05/10 16:50:38;;;;;;;8.30;3.80;;;;;;;19.88;37.78;100413.25;216538;1291;138200;-92
2023/05/10 16:55:38;;;;;;;8.40;3.70;;;;;;;19.76;37.78;100418.52;217066;1289;137963;-92
2023/05/10 17:00:39;;;;;;;8.90;4.00;;;;;;;19.66;37.82;100418.23;216526;1289;137825;-89
2023/05/10 17:05:40;;;;;;;6.10;3.20;;;;;;;19.55;38.24;100418.53;217035;1289;138698;-92
2023/05/10 17:10:41;;;;;;;6.50;3.20;;;;;;;19.45;38.39;100422.05;216659;1288;138749;-91
2023/05/10 17:15:41;;;;;;;8.40;3.60;;;;;;;19.36;38.71;100424.09;216945;1289;137992;-88
2023/05/10 17:20:43;;;;;;;10.20;3.50;;;;;;;19.26;38.67;100428.11;216530;1289;138096;-91
2023/05/10 17:25:43;;;;;;;7.10;3.50;;;;;;;19.16;38.93;100433.80;216987;1289;137867;-92
2023/05/10 17:30:44;;;;;;;7.90;4.10;;;;;;;19.07;39.57;100440.47;216470;1289;138007;-90
2023/05/10 17:35:45;;;;;;;6.70;3.30;;;;;;;18.97;39.52;100440.79;216919;1289;137834;-92
2023/05/10 17:40:46;;;;;;;8.30;3.40;;;;;;;18.86;39.62;100446.55;216545;1289;137963;-90
2023/05/10 17:45:48;;;;;;;6.20;3.00;;;;;;;18.75;39.53;100451.89;217065;1288;137485;-92
2023/05/10 17:50:49;;;;;;;6.40;3.70;;;;;;;18.63;39.88;100454.39;216489;1288;137605;-91
2023/05/10 17:55:50;;;;;;;7.10;3.20;;;;;;;18.50;40.53;100459.03;216770;1291;138357;-91
2023/05/10 18:00:51;;;;;;;9.30;3.60;;;;;;;18.35;41.11;100466.73;216472;1289;138617;-91
2023/05/10 18:05:53;;;;;;;8.80;3.90;;;;;;;18.21;42.01;100462.91;217082;1289;137633;-91
2023/05/10 18:10:55;;;;;;;10.00;4.50;;;;;;;18.09;42.12;100468.90;216606;1289;138337;-91
2023/05/10 18:15:55;;;;;;;8.00;3.80;;;;;;;17.96;41.89;100470.71;216939;1289;137728;-89
2023/05/10 18:20:56;;;;;;;9.40;4.10;;;;;;;17.86;42.07;100477.83;216447;1289;137948;-91
2023/05/10 18:25:57;;;;;;;9.50;4.10;;;;;;;17.75;41.93;100482.23;217024;1289;137840;-89
2023/05/10 18:30:57;;;;;;;10.70;4.50;;;;;;;17.63;42.29;100487.69;216516;1289;138101;-93
2023/05/10 18:35:58;;;;;;;12.20;4.50;;;;;;;17.49;42.47;100494.20;216920;1288;136892;-88
2023/05/10 18:40:59;;;;;;;11.60;4.50;;;;;;;17.34;42.75;100504.75;216642;1289;139218;-90
2023/05/10 18:46:00;;;;;;;8.10;3.70;;;;;;;17.21;42.82;100507.58;217048;1288;137516;-93
2023/05/10 18:51:01;;;;;;;11.60;3.80;;;;;;;17.06;43.51;100513.42;216279;1291;138173;-91
2023/05/10 18:56:02;;;;;;;11.00;4.50;;;;;;;16.90;43.98;100525.16;216957;1288;138023;-89
2023/05/10 19:01:03;;;;;;;12.60;5.10;;;;;;;16.73;44.37;100525.86;216503;1289;138017;-89
2023/05/10 19:06:04;;;;;;;9.60;4.70;;;;;;;16.56;45.04;100531.46;216924;1289;138532;-89
2023/05/10 19:11:04;;;;;;;11.70;5.00;;;;;;;16.40;45.48;100533.69;216549;1289;138982;-89
2023/05/10 19:16:10;;;;;;;12.60;5.60;;;;;;;16.26;45.91;100540.41;216951;1289;137626;-89
2023/05/10 19:21:12;;;;;;;12.40;5.10;;;;;;;16.11;46.70;100544.52;216342;1287;138088;-88
2023/05/10 19:26:24;;;;;;;14.40;5.70;;;;;;;15.96;47.11;100546.41;216969;1289;137860;-90
2023/05/10 19:31:25;;;;;;;15.50;6.70;;;;;;;15.83;47.33;100553.81;216509;1287;137826;-91
2023/05/10 19:36:26;;;;;;;15.00;5.50;;;;;;;15.70;47.67;100553.60;217028;1289;138625;-90
2023/05/10 19:41:27;;;;;;;13.90;5.40;;;;;;;15.58;48.09;100558.52;216440;1289;138722;-90
2023/05/10 19:46:28;;;;;;;10.10;4.50;;;;;;;15.46;48.57;100558.61;217145;1288;96482;-91
2023/05/10 19:51:28;;;;;;;13.50;5.50;;;;;;;15.35;48.95;100561.14;216404;1289;138461;-89
2023/05/10 19:56:29;;;;;;;10.20;5.00;;;;;;;15.24;49.01;100562.91;216916;1289;138675;-89
2023/05/10 20:01:31;;;;;;;11.60;4.80;;;;;;;15.15;49.45;100570.80;216422;1287;138408;-91
2023/05/10 20:06:31;;;;;;;11.10;4.90;;;;;;;15.06;49.43;100571.56;216912;1289;138138;-88
2023/05/10 20:11:32;;;;;;;10.70;4.70;;;;;;;14.97;49.48;100570.73;216496;1289;138106;-90
2023/05/10 20:16:33;;;;;;;13.70;5.50;;;;;;;14.89;49.75;100574.02;217145;1288;96847;-89
2023/05/10 20:21:33;;;;;;;11.80;5.90;;;;;;;14.80;49.86;100576.11;216545;1289;139189;-92
2023/05/10 20:26:34;;;;;;;12.40;5.00;;;;;;;14.71;49.90;100571.16;216869;1289;137852;-92
2023/05/10 20:31:34;;;;;;;15.80;5.20;;;;;;;14.63;50.16;100578.79;216488;1289;138672;-90
2023/05/10 20:36:34;;;;;;;9.30;4.80;;;;;;;14.53;50.20;100582.52;216863;1290;137942;-89
2023/05/10 20:41:35;;;;;;;9.70;4.60;;;;;;;14.42;50.48;100583.58;216488;1289;139589;-94
2023/05/10 20:46:36;;;;;;;11.60;5.20;;;;;;;14.33;50.85;100586.45;217011;1289;96934;-88
2023/05/10 20:51:36;;;;;;;12.70;5.00;;;;;;;14.22;51.06;100587.80;216386;1289;137701;-90
2023/05/10 20:56:37;;;;;;;11.70;5.30;;;;;;;14.14;51.25;100585.80;217020;1291;138242;-90
2023/05/10 21:01:38;;;;;;;12.90;4.50;;;;;;;14.05;51.43;100588.66;216448;1291;137947;-88
2023/05/10 21:06:38;;;;;;;9.70;4.20;;;;;;;13.95;51.54;100591.36;216875;1289;137816;-91
2023/05/10 21:11:39;;;;;;;12.70;4.90;;;;;;;13.86;51.58;100593.55;216431;1289;137800;-87
2023/05/10 21:16:40;;;;;;;11.10;5.10;;;;;;;13.80;51.43;100594.42;217033;1289;96603;-89
2023/05/10 21:21:40;;;;;;;11.70;4.70;;;;;;;13.78;51.40;100594.82;216448;1289;138140;-86
2023/05/10 21:26:41;;;;;;;9.30;4.40;;;;;;;13.79;51.24;100602.09;216951;1288;138049;-88
2023/05/10 21:31:41;;;;;;;10.30;4.80;;;;;;;13.74;51.40;100606.36;216429;1289;138369;-90
2023/05/10 21:36:41;;;;;;;9.70;4.50;;;;;;;13.63;51.68;100603.66;216899;1289;137857;-88
2023/05/10 21:41:42;;;;;;;11.20;4.60;;;;;;;13.52;52.14;100601.83;216420;1289;138200;-89
2023/05/10 21:46:43;;;;;;;10.10;5.30;;;;;;;13.41;52.44;100605.44;217011;1289;96488;-90
2023/05/10 21:51:43;;;;;;;13.30;5.30;;;;;;;13.31;52.91;100610.86;216480;1289;137768;-88
2023/05/10 21:56:44;;;;;;;18.00;6.00;;;;;;;13.22;53.11;100612.40;216900;1289;139239;-91
2023/05/10 22:01:44;;;;;;;10.70;4.70;;;;;;;13.12;53.37;100615.61;216406;1291;138562;-91
2023/05/10 22:06:44;;;;;;;12.10;5.60;;;;;;;13.02;53.73;100616.04;217025;1290;137981;-89
2023/05/10 22:11:45;;;;;;;13.20;5.60;;;;;;;12.94;53.97;100617.17;216415;1289;139667;-90
2023/05/10 22:16:45;;;;;;;12.30;5.40;;;;;;;12.85;54.35;100617.91;216983;1288;96594;-90
2023/05/10 22:21:45;;;;;;;11.40;5.40;;;;;;;12.75;54.59;100618.50;216342;1289;138190;-89
2023/05/10 22:26:46;;;;;;;11.10;5.50;;;;;;;12.66;54.86;100623.80;216843;1290;137763;-91
2023/05/10 22:31:46;;;;;;;10.70;5.00;;;;;;;12.56;55.11;100630.52;216355;1288;137946;-90
2023/05/10 22:36:48;;;;;;;10.60;4.70;;;;;;;12.46;55.26;100630.07;216898;1288;137852;-89
2023/05/10 22:41:49;;;;;;;12.10;5.80;;;;;;;12.38;55.37;100636.25;216450;1289;138506;-91
2023/05/10 22:46:49;;;;;;;12.60;5.50;;;;;;;12.30;55.72;100639.34;217071;1291;96514;-89
2023/05/10 22:51:49;;;;;;;13.10;4.80;;;;;;;12.23;55.58;100643.77;216422;1291;139238;-91
2023/05/10 22:56:50;;;;;;;14.70;5.70;;;;;;;12.18;55.89;100646.73;216953;1289;138378;-90